Time;durP1;ratioP1;P1;durP2;ratioP2;P2;SDS_P1;SDS_P2;PMS_P1;PMS_P2;Temp;Humidity;BMP_temperature;BMP_pressure;BME280_temperature;BME280_humidity;BME280_pressure;Samples;Min_cycle;Max_cycle;Signal;HPM_P1;HPM_P2
2022/06/21 00:01:55;;;;;;;;;;;;;;;;;;5063858;28;19966;-23
2022/06/21 00:04:22;;;;;;;;;;;;;;;;;;5063660;28;19955;-23
2022/06/21 00:06:48;;;;;;;;;;;;;;;;;;5063362;28;19913;-23
2022/06/21 00:09:16;;;;;;;;;;;;;;;;;;5063347;28;20336;-23
2022/06/21 00:11:42;;;;;;;;;;;;;;;;;;5062539;28;20252;-23
2022/06/21 00:14:08;;;;;;;;;;;;;;;;;;5062361;28;20000;-23
2022/06/21 00:16:35;;;;;;;;;;;;;;;;;;5063538;28;19920;-24
2022/06/21 00:19:04;;;;;;;;;;;;;;;;;;5063177;28;19956;-23
2022/06/21 00:21:31;;;;;;;;;;;;;;;;;;5063292;28;19913;-23
2022/06/21 00:23:57;;;;;;;;;;;;;;;;;;5063664;28;19908;-23
2022/06/21 00:26:24;;;;;;;;;;;;;;;;;;5061984;28;19913;-23
2022/06/21 00:28:51;;;;;;;;;;;;;;;;;;5063133;28;19917;-23
2022/06/21 00:31:18;;;;;;;;;;;;;;;;;;5061849;28;19909;-23
2022/06/21 00:33:46;;;;;;;;;;;;;;;;;;5063490;28;19966;-23
2022/06/21 00:36:12;;;;;;;;;;;;;;;;;;5061861;28;19913;-23
2022/06/21 00:38:39;;;;;;;;;;;;;;;;;;5062928;28;19909;-23
2022/06/21 00:41:06;;;;;;;;;;;;;;;;;;5062945;28;19916;-23
2022/06/21 00:43:33;;;;;;;;;;;;;;;;;;5061950;28;19908;-23
2022/06/21 00:46:01;;;;;;;;;;;;;;;;;;5063310;28;19920;-24
2022/06/21 00:48:27;;;;;;;;;;;;;;;;;;5062812;28;20011;-23
2022/06/21 00:50:54;;;;;;;;;;;;;;;;;;5062978;28;19970;-24
2022/06/21 00:53:21;;;;;;;;;;;;;;;;;;5061943;28;19908;-23
2022/06/21 00:55:48;;;;;;;;;;;;;;;;;;5061619;28;19971;-23
2022/06/21 00:58:15;;;;;;;;;;;;;;;;;;5063201;28;19917;-23
2022/06/21 01:00:42;;;;;;;;;;;;;;;;;;5063101;28;19924;-24
2022/06/21 01:03:08;;;;;;;;;;;;;;;;;;5062877;28;20225;-23
2022/06/21 01:05:35;;;;;;;;;;;;;;;;;;5057753;28;19920;-23
2022/06/21 01:08:02;;;;;;;;;;;;;;;;;;5059850;28;19928;-23
2022/06/21 01:10:29;;;;;;;;;;;;;;;;;;5058726;28;19909;-23
2022/06/21 01:12:56;;;;;;;;;;;;;;;;;;5058989;28;19927;-23
2022/06/21 01:15:22;;;;;;;;;;;;;;;;;;5059899;28;19972;-23
2022/06/21 01:17:49;;;;;;;;;;;;;;;;;;5059734;28;19992;-23
2022/06/21 01:20:15;;;;;;;;;;;;;;;;;;5060130;28;20078;-23
2022/06/21 01:22:42;;;;;;;;;;;;;;;;;;5058397;28;20247;-23
2022/06/21 01:25:09;;;;;;;;;;;;;;;;;;5059273;28;20001;-23
2022/06/21 01:27:36;;;;;;;;;;;;;;;;;;5059161;28;20114;-23
2022/06/21 01:30:04;;;;;;;;;;;;;;;;;;5058036;28;20259;-24
2022/06/21 01:32:31;;;;;;;;;;;;;;;;;;5059395;28;20028;-23
2022/06/21 01:34:59;;;;;;;;;;;;;;;;;;5058832;28;20362;-23
2022/06/21 01:37:26;;;;;;;;;;;;;;;;;;5059215;28;19959;-23
2022/06/21 01:39:53;;;;;;;;;;;;;;;;;;5057740;28;20394;-23
2022/06/21 01:42:19;;;;;;;;;;;;;;;;;;5058767;28;19912;-23
2022/06/21 01:44:46;;;;;;;;;;;;;;;;;;5059006;28;19913;-23
2022/06/21 01:47:13;;;;;;;;;;;;;;;;;;5057619;28;20423;-23
2022/06/21 01:49:41;;;;;;;;;;;;;;;;;;5057960;28;20267;-24
2022/06/21 01:52:08;;;;;;;;;;;;;;;;;;5058726;28;19913;-25
2022/06/21 01:54:36;;;;;;;;;;;;;;;;;;5058831;28;19912;-23
2022/06/21 01:57:03;;;;;;;;;;;;;;;;;;5057654;28;19912;-23
2022/06/21 01:59:30;;;;;;;;;;;;;;;;;;5058435;28;20348;-23
2022/06/21 02:01:57;;;;;;;;;;;;;;;;;;5059307;28;19924;-23
2022/06/21 02:04:24;;;;;;;;;;;;;;;;;;5057542;28;19909;-23
2022/06/21 02:06:50;;;;;;;;;;;;;;;;;;5058815;28;19912;-23
2022/06/21 02:09:18;;;;;;;;;;;;;;;;;;5058281;28;19921;-23
2022/06/21 02:11:45;;;;;;;;;;;;;;;;;;5059050;28;19919;-23
2022/06/21 02:16:56;;;;;;;;;;;;;;;;;;5058480;28;20010;-23
2022/06/21 02:19:23;;;;;;;;;;;;;;;;;;5058819;28;19909;-24
2022/06/21 02:21:50;;;;;;;;;;;;;;;;;;5058543;28;19913;-23
2022/06/21 02:24:17;;;;;;;;;;;;;;;;;;5058087;28;19912;-23
2022/06/21 02:26:44;;;;;;;;;;;;;;;;;;5058461;28;19975;-23
2022/06/21 02:29:10;;;;;;;;;;;;;;;;;;5057690;28;19916;-23
2022/06/21 02:31:37;;;;;;;;;;;;;;;;;;5058079;28;19916;-23
2022/06/21 02:34:04;;;;;;;;;;;;;;;;;;5057962;28;19981;-23
2022/06/21 02:36:30;;;;;;;;;;;;;;;;;;5058142;28;19968;-23
2022/06/21 02:38:57;;;;;;;;;;;;;;;;;;5057611;28;19912;-23
2022/06/21 02:41:25;;;;;;;;;;;;;;;;;;5056859;28;20219;-23
2022/06/21 02:43:51;;;;;;;;;;;;;;;;;;5057253;28;19945;-23
2022/06/21 02:46:18;;;;;;;;;;;;;;;;;;5057824;28;19999;-23
2022/06/21 02:48:45;;;;;;;;;;;;;;;;;;5056984;28;20322;-23
2022/06/21 02:51:12;;;;;;;;;;;;;;;;;;5057830;28;19958;-23
2022/06/21 02:53:38;;;;;;;;;;;;;;;;;;5057720;28;19913;-23
2022/06/21 02:56:05;;;;;;;;;;;;;;;;;;5057780;28;19955;-23
2022/06/21 02:58:32;;;;;;;;;;;;;;;;;;5057357;28;20259;-23
2022/06/21 03:00:58;;;;;;;;;;;;;;;;;;5057844;28;19912;-23
2022/06/21 03:03:25;;;;;;;;;;;;;;;;;;5057154;28;19995;-23
2022/06/21 03:05:52;;;;;;;;;;;;;;;;;;5056261;28;19912;-24
2022/06/21 03:08:19;;;;;;;;;;;;;;;;;;5056187;28;20015;-23
2022/06/21 03:10:46;;;;;;;;;;;;;;;;;;5056955;28;20295;-23
2022/06/21 03:13:12;;;;;;;;;;;;;;;;;;5057191;28;19913;-23
2022/06/21 03:15:39;;;;;;;;;;;;;;;;;;5056132;28;19909;-23
2022/06/21 03:18:06;;;;;;;;;;;;;;;;;;5057157;28;19956;-23
2022/06/21 03:20:33;;;;;;;;;;;;;;;;;;5057416;28;19912;-23
2022/06/21 03:23:00;;;;;;;;;;;;;;;;;;5056025;28;19916;-23
2022/06/21 03:25:27;;;;;;;;;;;;;;;;;;5056045;28;19909;-23
2022/06/21 03:27:54;;;;;;;;;;;;;;;;;;5055237;28;20351;-23
2022/06/21 03:30:21;;;;;;;;;;;;;;;;;;5056851;28;20255;-24
2022/06/21 03:32:48;;;;;;;;;;;;;;;;;;5056062;28;20342;-23
2022/06/21 03:35:15;;;;;;;;;;;;;;;;;;5056785;28;19931;-23
2022/06/21 03:37:41;;;;;;;;;;;;;;;;;;5056838;28;19917;-23
2022/06/21 03:42:53;;;;;;;;;;;;;;;;;;5057078;28;20058;-25
2022/06/21 03:45:20;;;;;;;;;;;;;;;;;;5056657;28;19908;-24
2022/06/21 03:47:46;;;;;;;;;;;;;;;;;;5055302;28;19916;-23
2022/06/21 03:50:13;;;;;;;;;;;;;;;;;;5056834;28;19995;-23
2022/06/21 03:52:43;;;;;;;;;;;;;;;;;;5055505;28;19956;-23
2022/06/21 03:55:11;;;;;;;;;;;;;;;;;;5056135;28;19909;-23
2022/06/21 03:57:37;;;;;;;;;;;;;;;;;;5056050;28;19912;-23
2022/06/21 04:00:05;;;;;;;;;;;;;;;;;;5056155;28;20314;-23
2022/06/21 04:02:32;;;;;;;;;;;;;;;;;;5056163;28;19924;-23
2022/06/21 04:04:58;;;;;;;;;;;;;;;;;;5054970;28;19909;-24
2022/06/21 04:07:26;;;;;;;;;;;;;;;;;;5056218;28;19952;-25
2022/06/21 04:09:53;;;;;;;;;;;;;;;;;;5055641;28;19979;-24
2022/06/21 04:12:20;;;;;;;;;;;;;;;;;;5056434;28;19913;-25
2022/06/21 04:14:46;;;;;;;;;;;;;;;;;;5056282;28;19917;-24
2022/06/21 04:17:13;;;;;;;;;;;;;;;;;;5055011;28;19974;-24
2022/06/21 04:19:40;;;;;;;;;;;;;;;;;;5055837;28;19938;-24
2022/06/21 04:22:09;;;;;;;;;;;;;;;;;;5054665;28;20306;-24
2022/06/21 04:24:37;;;;;;;;;;;;;;;;;;5055733;28;19966;-24
2022/06/21 04:27:04;;;;;;;;;;;;;;;;;;5056220;28;19913;-25
2022/06/21 04:29:32;;;;;;;;;;;;;;;;;;5055421;28;19952;-24
2022/06/21 04:31:59;;;;;;;;;;;;;;;;;;5055930;28;20000;-24
2022/06/21 04:34:26;;;;;;;;;;;;;;;;;;5054850;28;20026;-24
2022/06/21 04:36:53;;;;;;;;;;;;;;;;;;5055546;28;19923;-24
2022/06/21 04:39:21;;;;;;;;;;;;;;;;;;5056346;28;19945;-24
2022/06/21 04:41:49;;;;;;;;;;;;;;;;;;5059682;28;19913;-24
2022/06/21 04:44:16;;;;;;;;;;;;;;;;;;5059835;28;19976;-24
2022/06/21 04:46:42;;;;;;;;;;;;;;;;;;5059697;28;19956;-28
2022/06/21 04:49:09;;;;;;;;;;;;;;;;;;5058561;28;19991;-24
2022/06/21 04:51:38;;;;;;;;;;;;;;;;;;5058361;28;19944;-24
2022/06/21 04:54:05;;;;;;;;;;;;;;;;;;5058557;28;19913;-24
2022/06/21 04:56:32;;;;;;;;;;;;;;;;;;5058034;28;19943;-25
2022/06/21 04:58:59;;;;;;;;;;;;;;;;;;5059137;28;19988;-24
2022/06/21 05:01:37;;;;;;;;;;;;;;;;;;5058976;28;19913;-25
2022/06/21 05:04:04;;;;;;;;;;;;;;;;;;5059462;28;19913;-24
2022/06/21 05:06:31;;;;;;;;;;;;;;;;;;5057616;28;20340;-25
2022/06/21 05:08:58;;;;;;;;;;;;;;;;;;5058871;28;20336;-24
2022/06/21 05:11:26;;;;;;;;;;;;;;;;;;5058695;28;19909;-24
2022/06/21 05:13:54;;;;;;;;;;;;;;;;;;5058771;28;19912;-24
2022/06/21 05:16:24;;;;;;;;;;;;;;;;;;5058098;28;19923;-25
2022/06/21 05:18:51;;;;;;;;;;;;;;;;;;5059129;28;20270;-25
2022/06/21 05:21:19;;;;;;;;;;;;;;;;;;5058980;28;19908;-25
2022/06/21 05:23:46;;;;;;;;;;;;;;;;;;5058516;28;19913;-25
2022/06/21 05:26:15;;;;;;;;;;;;;;;;;;5059071;28;19913;-24
2022/06/21 05:28:47;;;;;;;;;;;;;;;;;;5057333;28;20491;-24
2022/06/21 05:31:16;;;;;;;;;;;;;;;;;;5059085;28;20306;-24
2022/06/21 05:33:43;;;;;;;;;;;;;;;;;;5058329;28;20008;-24
2022/06/21 05:36:11;;;;;;;;;;;;;;;;;;5058474;28;19913;-24
2022/06/21 05:38:38;;;;;;;;;;;;;;;;;;5058286;28;19916;-24
2022/06/21 05:41:05;;;;;;;;;;;;;;;;;;5058059;28;19916;-25
2022/06/21 05:43:33;;;;;;;;;;;;;;;;;;5058443;28;19996;-24
2022/06/21 05:46:01;;;;;;;;;;;;;;;;;;5058212;28;19986;-24
2022/06/21 05:48:29;;;;;;;;;;;;;;;;;;5056933;28;20047;-23
2022/06/21 05:50:58;;;;;;;;;;;;;;;;;;5057966;28;19927;-23
2022/06/21 05:53:26;;;;;;;;;;;;;;;;;;5058175;28;20302;-24
2022/06/21 05:55:54;;;;;;;;;;;;;;;;;;5058240;28;20276;-23
2022/06/21 05:58:22;;;;;;;;;;;;;;;;;;5053006;28;19928;-23
2022/06/21 06:00:52;;;;;;;;;;;;;;;;;;5053662;28;19913;-23
2022/06/21 06:03:19;;;;;;;;;;;;;;;;;;5038596;28;19917;-23
2022/06/21 06:05:47;;;;;;;;;;;;;;;;;;5038246;28;19917;-23
2022/06/21 06:08:15;;;;;;;;;;;;;;;;;;5038624;28;19929;-25
2022/06/21 06:10:44;;;;;;;;;;;;;;;;;;5038002;28;20260;-24
2022/06/21 06:13:24;;;;;;;;;;;;;;;;;;5036598;28;19932;-24
2022/06/21 06:15:52;;;;;;;;;;;;;;;;;;5036800;28;19913;-25
2022/06/21 06:18:21;;;;;;;;;;;;;;;;;;5036820;28;20037;-24
2022/06/21 06:20:49;;;;;;;;;;;;;;;;;;5036833;28;20028;-24
2022/06/21 06:23:17;;;;;;;;;;;;;;;;;;5052834;28;20015;-24
2022/06/21 06:26:05;;;;;;;;;;;;;;;;;;5051591;28;19936;-26
2022/06/21 06:28:37;;;;;;;;;;;;;;;;;;5036572;28;19925;-24
2022/06/21 06:31:06;;;;;;;;;;;;;;;;;;5036704;28;20309;-24
2022/06/21 06:33:34;;;;;;;;;;;;;;;;;;5052120;28;19916;-24
2022/06/21 06:36:02;;;;;;;;;;;;;;;;;;5052202;28;19913;-24
2022/06/21 06:38:30;;;;;;;;;;;;;;;;;;5050544;28;19919;-24
2022/06/21 06:41:00;;;;;;;;;;;;;;;;;;5051792;28;20013;-23
2022/06/21 06:43:29;;;;;;;;;;;;;;;;;;5052792;28;19953;-23
2022/06/21 06:45:57;;;;;;;;;;;;;;;;;;5053315;28;19987;-24
2022/06/21 06:48:25;;;;;;;;;;;;;;;;;;5052768;28;19928;-23
2022/06/21 06:53:44;;;;;;;;;;;;;;;;;;5037858;28;19974;-24
2022/06/21 06:56:20;;;;;;;;;;;;;;;;;;5037705;28;20309;-24
2022/06/21 07:01:40;;;;;;;;;;;;;;;;;;5038170;28;20321;-24
2022/06/21 07:04:09;;;;;;;;;;;;;;;;;;5036941;28;19989;-23
2022/06/21 07:06:44;;;;;;;;;;;;;;;;;;5037597;28;20206;-24
2022/06/21 07:09:12;;;;;;;;;;;;;;;;;;5053039;28;19917;-24
2022/06/21 07:11:42;;;;;;;;;;;;;;;;;;5037151;28;19913;-24
2022/06/21 07:14:09;;;;;;;;;;;;;;;;;;5037053;28;19912;-24
2022/06/21 07:16:38;;;;;;;;;;;;;;;;;;5037380;28;19952;-24
2022/06/21 07:19:18;;;;;;;;;;;;;;;;;;5037328;28;19957;-24
2022/06/21 07:21:46;;;;;;;;;;;;;;;;;;5038113;28;19909;-24
2022/06/21 07:24:14;;;;;;;;;;;;;;;;;;5037625;28;19917;-24
2022/06/21 07:26:44;;;;;;;;;;;;;;;;;;5052670;28;19920;-24
2022/06/21 07:29:17;;;;;;;;;;;;;;;;;;5052697;28;19913;-24
2022/06/21 07:31:45;;;;;;;;;;;;;;;;;;5037406;28;19913;-24
2022/06/21 07:34:22;;;;;;;;;;;;;;;;;;5036607;28;19949;-25
2022/06/21 07:36:52;;;;;;;;;;;;;;;;;;5037430;28;19975;-24
2022/06/21 07:39:27;;;;;;;;;;;;;;;;;;5038124;28;19913;-24
2022/06/21 07:41:59;;;;;;;;;;;;;;;;;;5037298;28;19960;-24
2022/06/21 07:44:31;;;;;;;;;;;;;;;;;;5037794;28;19912;-24
2022/06/21 07:52:34;;;;;;;;;;;;;;;;;;5037623;28;20339;-25
2022/06/21 07:57:57;;;;;;;;;;;;;;;;;;5040085;28;19920;-24
2022/06/21 08:00:26;;;;;;;;;;;;;;;;;;5057241;28;20349;-25
2022/06/21 08:08:25;;;;;;;;;;;;;;;;;;5056952;28;19943;-24
2022/06/21 08:10:56;;;;;;;;;;;;;;;;;;5056437;28;19916;-24
2022/06/21 08:13:23;;;;;;;;;;;;;;;;;;5056610;28;19943;-24
2022/06/21 08:15:51;;;;;;;;;;;;;;;;;;5059865;28;19921;-24
2022/06/21 08:18:19;;;;;;;;;;;;;;;;;;5060178;28;20007;-24
2022/06/21 08:20:47;;;;;;;;;;;;;;;;;;5060434;28;19924;-24
2022/06/21 08:25:59;;;;;;;;;;;;;;;;;;5062622;28;19935;-25
2022/06/21 08:28:28;;;;;;;;;;;;;;;;;;5061924;28;19920;-25
2022/06/21 08:30:59;;;;;;;;;;;;;;;;;;5061181;28;19909;-25
2022/06/21 08:33:39;;;;;;;;;;;;;;;;;;5059234;28;19983;-24
2022/06/21 08:36:07;;;;;;;;;;;;;;;;;;5060855;28;19917;-25
2022/06/21 08:38:34;;;;;;;;;;;;;;;;;;5060613;28;19998;-25
2022/06/21 08:41:02;;;;;;;;;;;;;;;;;;5058182;28;19917;-24
2022/06/21 08:43:30;;;;;;;;;;;;;;;;;;5059599;28;19956;-25
2022/06/21 08:46:03;;;;;;;;;;;;;;;;;;5058658;28;19913;-25
2022/06/21 08:48:32;;;;;;;;;;;;;;;;;;5058360;28;19912;-24
2022/06/21 08:53:50;;;;;;;;;;;;;;;;;;5061595;28;19923;-24
2022/06/21 08:56:17;;;;;;;;;;;;;;;;;;5057873;28;19927;-24
2022/06/21 08:58:45;;;;;;;;;;;;;;;;;;5059089;28;19950;-24
2022/06/21 09:01:13;;;;;;;;;;;;;;;;;;5059796;28;19909;-23
2022/06/21 09:03:45;;;;;;;;;;;;;;;;;;5059151;28;19961;-25
2022/06/21 09:09:08;;;;;;;;;;;;;;;;;;5059241;28;19963;-25
2022/06/21 09:11:40;;;;;;;;;;;;;;;;;;5059669;28;20239;-25
2022/06/21 09:14:10;;;;;;;;;;;;;;;;;;5059782;28;20377;-25
2022/06/21 09:19:28;;;;;;;;;;;;;;;;;;5060015;28;19970;-25
2022/06/21 09:21:56;;;;;;;;;;;;;;;;;;5058890;28;19948;-24
2022/06/21 09:24:28;;;;;;;;;;;;;;;;;;5058258;28;19913;-24
2022/06/21 09:26:55;;;;;;;;;;;;;;;;;;5058570;28;19913;-24
2022/06/21 09:29:26;;;;;;;;;;;;;;;;;;5058368;28;19927;-24
2022/06/21 09:32:02;;;;;;;;;;;;;;;;;;5057400;28;20014;-24
2022/06/21 09:34:29;;;;;;;;;;;;;;;;;;5059640;28;19937;-24
2022/06/21 09:37:04;;;;;;;;;;;;;;;;;;5058516;28;19917;-24
2022/06/21 09:39:31;;;;;;;;;;;;;;;;;;5059237;28;19912;-24
2022/06/21 09:41:58;;;;;;;;;;;;;;;;;;5059857;28;20011;-23
2022/06/21 09:44:26;;;;;;;;;;;;;;;;;;5059266;28;20280;-24
2022/06/21 09:46:54;;;;;;;;;;;;;;;;;;5060318;28;20004;-24
2022/06/21 09:52:11;;;;;;;;;;;;;;;;;;5059827;28;19923;-24
2022/06/21 09:54:39;;;;;;;;;;;;;;;;;;5058497;28;19920;-24
2022/06/21 09:57:10;;;;;;;;;;;;;;;;;;5059552;28;20066;-24
2022/06/21 09:59:37;;;;;;;;;;;;;;;;;;5059135;28;19928;-24
2022/06/21 10:02:05;;;;;;;;;;;;;;;;;;5058659;28;19909;-24
2022/06/21 10:04:33;;;;;;;;;;;;;;;;;;5059392;28;19923;-24
2022/06/21 10:07:00;;;;;;;;;;;;;;;;;;5057178;28;19912;-23
2022/06/21 10:09:28;;;;;;;;;;;;;;;;;;5058651;28;19917;-23
2022/06/21 10:11:56;;;;;;;;;;;;;;;;;;5057994;28;19912;-24
2022/06/21 10:14:26;;;;;;;;;;;;;;;;;;5058622;28;19924;-24
2022/06/21 10:16:53;;;;;;;;;;;;;;;;;;5059005;28;19913;-24
2022/06/21 10:19:23;;;;;;;;;;;;;;;;;;5057819;28;19920;-24
2022/06/21 10:22:08;;;;;;;;;;;;;;;;;;5058468;28;19913;-24
2022/06/21 10:27:31;;;;;;;;;;;;;;;;;;5058005;28;19927;-24
2022/06/21 10:30:08;;;;;;;;;;;;;;;;;;5057188;28;19986;-24
2022/06/21 10:32:37;;;;;;;;;;;;;;;;;;5058167;28;19923;-25
2022/06/21 10:35:06;;;;;;;;;;;;;;;;;;5058175;28;19962;-25
2022/06/21 10:37:34;;;;;;;;;;;;;;;;;;5057998;28;20338;-24
2022/06/21 10:40:02;;;;;;;;;;;;;;;;;;5057845;28;19908;-24
2022/06/21 10:48:13;;;;;;;;;;;;;;;;;;5062646;28;19923;-25
2022/06/21 10:53:26;;;;;;;;;;;;;;;;;;5058524;28;19923;-24
2022/06/21 10:57:09;;;;;;;;;;;;;;;;;;5057711;28;19912;-24
2022/06/21 10:58:46;;;;;;;;;;;;;;;;;;5055794;28;19917;-24
2022/06/21 11:01:21;;;;;;;;;;;;;;;;;;5056754;28;19966;-24
2022/06/21 11:03:49;;;;;;;;;;;;;;;;;;5056751;28;19913;-24
2022/06/21 11:06:16;;;;;;;;;;;;;;;;;;5055358;28;19908;-25
2022/06/21 11:08:43;;;;;;;;;;;;;;;;;;5055474;28;20023;-24
2022/06/21 11:11:10;;;;;;;;;;;;;;;;;;5056631;28;19909;-24
2022/06/21 11:13:38;;;;;;;;;;;;;;;;;;5055410;28;19909;-24
2022/06/21 11:16:06;;;;;;;;;;;;;;;;;;5056570;28;19923;-24
2022/06/21 11:18:33;;;;;;;;;;;;;;;;;;5056550;28;20000;-24
2022/06/21 11:21:00;;;;;;;;;;;;;;;;;;5056773;28;19913;-24
2022/06/21 11:23:31;;;;;;;;;;;;;;;;;;5057047;28;20017;-24
2022/06/21 11:25:58;;;;;;;;;;;;;;;;;;5057271;28;19913;-26
2022/06/21 11:28:29;;;;;;;;;;;;;;;;;;5057231;28;19913;-24
2022/06/21 11:30:57;;;;;;;;;;;;;;;;;;5057239;28;19912;-25
2022/06/21 11:33:24;;;;;;;;;;;;;;;;;;5057979;28;19913;-25
2022/06/21 11:35:56;;;;;;;;;;;;;;;;;;5057017;28;19995;-25
2022/06/21 11:38:32;;;;;;;;;;;;;;;;;;5057967;28;19913;-24
2022/06/21 11:41:00;;;;;;;;;;;;;;;;;;5057968;28;19909;-25
2022/06/21 11:43:28;;;;;;;;;;;;;;;;;;5055405;28;19923;-25
2022/06/21 11:45:55;;;;;;;;;;;;;;;;;;5056672;28;19939;-24
2022/06/21 11:48:25;;;;;;;;;;;;;;;;;;5056386;28;20012;-24
2022/06/21 11:50:55;;;;;;;;;;;;;;;;;;5055748;28;19955;-24
2022/06/21 11:53:24;;;;;;;;;;;;;;;;;;5055118;28;19913;-24
2022/06/21 11:55:52;;;;;;;;;;;;;;;;;;5056784;28;19917;-24
2022/06/21 11:58:19;;;;;;;;;;;;;;;;;;5052070;28;19952;-24
2022/06/21 12:00:52;;;;;;;;;;;;;;;;;;5037059;28;20237;-25
2022/06/21 12:06:13;;;;;;;;;;;;;;;;;;5037522;28;19970;-25
2022/06/21 12:08:42;;;;;;;;;;;;;;;;;;5037130;28;19978;-25
2022/06/21 12:11:11;;;;;;;;;;;;;;;;;;5037253;28;20459;-26
2022/06/21 12:13:40;;;;;;;;;;;;;;;;;;5052575;28;19909;-25
2022/06/21 12:16:09;;;;;;;;;;;;;;;;;;5037458;28;19928;-25
2022/06/21 12:18:37;;;;;;;;;;;;;;;;;;5038001;28;19909;-25
2022/06/21 12:21:05;;;;;;;;;;;;;;;;;;5052436;28;19917;-25
2022/06/21 12:23:41;;;;;;;;;;;;;;;;;;5038009;28;20000;-25
2022/06/21 12:26:10;;;;;;;;;;;;;;;;;;5038432;28;19913;-25
2022/06/21 12:28:41;;;;;;;;;;;;;;;;;;5052730;28;20003;-25
2022/06/21 12:31:09;;;;;;;;;;;;;;;;;;5052706;28;19913;-25
2022/06/21 12:36:30;;;;;;;;;;;;;;;;;;5037979;28;19983;-25
2022/06/21 12:38:59;;;;;;;;;;;;;;;;;;5037310;28;19913;-25
2022/06/21 12:41:43;;;;;;;;;;;;;;;;;;5037737;28;20054;-25
2022/06/21 12:44:15;;;;;;;;;;;;;;;;;;5037190;28;19913;-25
2022/06/21 12:46:48;;;;;;;;;;;;;;;;;;5037475;28;19920;-25
2022/06/21 12:49:25;;;;;;;;;;;;;;;;;;5052648;28;20012;-25
2022/06/21 12:51:53;;;;;;;;;;;;;;;;;;5037200;28;19913;-25
2022/06/21 12:57:14;;;;;;;;;;;;;;;;;;5037328;28;20011;-25
2022/06/21 12:59:44;;;;;;;;;;;;;;;;;;5052387;28;19921;-25
2022/06/21 13:02:20;;;;;;;;;;;;;;;;;;5039550;28;20240;-25
2022/06/21 13:04:51;;;;;;;;;;;;;;;;;;5041571;28;19921;-25
2022/06/21 13:07:19;;;;;;;;;;;;;;;;;;5040906;28;19952;-25
2022/06/21 13:09:46;;;;;;;;;;;;;;;;;;5040204;28;19921;-25
2022/06/21 13:12:14;;;;;;;;;;;;;;;;;;5040427;28;19913;-24
2022/06/21 13:14:45;;;;;;;;;;;;;;;;;;5055498;28;19912;-24
2022/06/21 13:17:12;;;;;;;;;;;;;;;;;;5039864;28;19944;-24
2022/06/21 13:19:41;;;;;;;;;;;;;;;;;;5038673;28;19909;-25
2022/06/21 13:22:09;;;;;;;;;;;;;;;;;;5040576;28;19912;-24
2022/06/21 13:24:37;;;;;;;;;;;;;;;;;;5039577;28;19910;-24
2022/06/21 13:27:06;;;;;;;;;;;;;;;;;;5039873;28;19921;-25
2022/06/21 13:29:36;;;;;;;;;;;;;;;;;;5038952;28;19913;-24
2022/06/21 13:32:03;;;;;;;;;;;;;;;;;;5055190;28;19914;-24
2022/06/21 13:34:31;;;;;;;;;;;;;;;;;;5039131;28;20302;-24
2022/06/21 13:39:46;;;;;;;;;;;;;;;;;;5038839;28;20011;-25
2022/06/21 13:44:59;;;;;;;;;;;;;;;;;;5039120;28;20354;-24
2022/06/21 13:47:28;;;;;;;;;;;;;;;;;;5054764;28;19925;-24
2022/06/21 13:49:56;;;;;;;;;;;;;;;;;;5053940;28;20264;-25
2022/06/21 13:52:24;;;;;;;;;;;;;;;;;;5054275;28;20424;-25
2022/06/21 13:54:54;;;;;;;;;;;;;;;;;;5040305;28;19967;-24
2022/06/21 13:57:22;;;;;;;;;;;;;;;;;;5056049;28;20323;-24
2022/06/21 13:59:50;;;;;;;;;;;;;;;;;;5057310;28;19916;-25
2022/06/21 14:02:19;;;;;;;;;;;;;;;;;;5060722;28;19974;-25
2022/06/21 14:04:48;;;;;;;;;;;;;;;;;;5059774;28;19913;-25
2022/06/21 14:07:18;;;;;;;;;;;;;;;;;;5060062;28;19917;-25
2022/06/21 14:09:45;;;;;;;;;;;;;;;;;;5060152;28;19916;-24
2022/06/21 14:12:14;;;;;;;;;;;;;;;;;;5061591;28;19913;-24
2022/06/21 14:14:42;;;;;;;;;;;;;;;;;;5059801;28;19946;-24
2022/06/21 14:17:16;;;;;;;;;;;;;;;;;;5059056;28;19920;-24
2022/06/21 14:19:57;;;;;;;;;;;;;;;;;;5058391;28;19963;-24
2022/06/21 14:22:26;;;;;;;;;;;;;;;;;;5060881;28;19939;-25
2022/06/21 14:24:55;;;;;;;;;;;;;;;;;;5059928;28;19913;-25
2022/06/21 14:27:33;;;;;;;;;;;;;;;;;;5059816;28;19912;-25
2022/06/21 14:30:04;;;;;;;;;;;;;;;;;;5058178;28;19920;-25
2022/06/21 14:32:31;;;;;;;;;;;;;;;;;;5056215;28;20007;-25
2022/06/21 14:34:59;;;;;;;;;;;;;;;;;;5057302;28;19916;-25
2022/06/21 14:37:26;;;;;;;;;;;;;;;;;;5057960;28;19923;-25
2022/06/21 14:39:55;;;;;;;;;;;;;;;;;;5058039;28;19970;-25
2022/06/21 14:42:23;;;;;;;;;;;;;;;;;;5057445;28;19951;-25
2022/06/21 14:44:50;;;;;;;;;;;;;;;;;;5058201;28;20456;-25
2022/06/21 14:47:19;;;;;;;;;;;;;;;;;;5056875;28;19916;-25
2022/06/21 14:49:49;;;;;;;;;;;;;;;;;;5056943;28;19921;-24
2022/06/21 14:52:20;;;;;;;;;;;;;;;;;;5057930;28;19924;-25
2022/06/21 14:54:47;;;;;;;;;;;;;;;;;;5057374;28;20231;-25
2022/06/21 14:57:13;;;;;;;;;;;;;;;;;;5056540;28;19947;-25
2022/06/21 14:59:40;;;;;;;;;;;;;;;;;;5057438;28;19917;-25
2022/06/21 15:02:07;;;;;;;;;;;;;;;;;;5057674;28;20378;-25
2022/06/21 15:04:34;;;;;;;;;;;;;;;;;;5056060;28;19913;-25
2022/06/21 15:07:02;;;;;;;;;;;;;;;;;;5055922;28;20300;-25
2022/06/21 15:09:32;;;;;;;;;;;;;;;;;;5057188;28;19999;-24
2022/06/21 15:12:03;;;;;;;;;;;;;;;;;;5056161;28;19939;-25
2022/06/21 15:14:31;;;;;;;;;;;;;;;;;;5056413;28;19913;-24
2022/06/21 15:16:58;;;;;;;;;;;;;;;;;;5055565;28;19909;-24
2022/06/21 15:22:10;;;;;;;;;;;;;;;;;;5056156;28;19923;-25
2022/06/21 15:24:37;;;;;;;;;;;;;;;;;;5054162;28;20208;-24
2022/06/21 15:27:04;;;;;;;;;;;;;;;;;;5055982;28;19959;-25
2022/06/21 15:29:32;;;;;;;;;;;;;;;;;;5055764;28;20011;-24
2022/06/21 15:31:59;;;;;;;;;;;;;;;;;;5056327;28;19913;-24
2022/06/21 15:34:27;;;;;;;;;;;;;;;;;;5054880;28;19939;-24
2022/06/21 15:36:54;;;;;;;;;;;;;;;;;;5056114;28;19923;-24
2022/06/21 15:39:21;;;;;;;;;;;;;;;;;;5057131;28;20006;-25
2022/06/21 15:41:48;;;;;;;;;;;;;;;;;;5055825;28;19916;-24
2022/06/21 15:44:16;;;;;;;;;;;;;;;;;;5056703;28;20264;-24
2022/06/21 15:50:12;;;;;;;;;;;;;;;;;;5057459;28;19955;-24
2022/06/21 15:52:14;;;;;;;;;;;;;;;;;;5056470;28;19963;-25
2022/06/21 15:54:41;;;;;;;;;;;;;;;;;;5057117;28;19919;-23
2022/06/21 15:57:10;;;;;;;;;;;;;;;;;;5057344;28;21604;-23
2022/06/21 15:59:37;;;;;;;;;;;;;;;;;;5056544;28;19928;-23
2022/06/21 16:02:04;;;;;;;;;;;;;;;;;;5056445;28;20251;-23
2022/06/21 16:04:31;;;;;;;;;;;;;;;;;;5056697;28;19962;-23
2022/06/21 16:06:57;;;;;;;;;;;;;;;;;;5055406;28;19924;-25
2022/06/21 16:09:24;;;;;;;;;;;;;;;;;;5056378;28;19918;-24
2022/06/21 16:11:52;;;;;;;;;;;;;;;;;;5054573;28;19913;-24
2022/06/21 16:14:20;;;;;;;;;;;;;;;;;;5056531;28;19916;-25
2022/06/21 16:16:48;;;;;;;;;;;;;;;;;;5055372;28;19977;-24
2022/06/21 16:19:14;;;;;;;;;;;;;;;;;;5056644;28;19915;-24
2022/06/21 16:21:41;;;;;;;;;;;;;;;;;;5055137;28;19913;-24
2022/06/21 16:24:08;;;;;;;;;;;;;;;;;;5055336;28;20310;-24
2022/06/21 16:26:36;;;;;;;;;;;;;;;;;;5055492;28;19908;-24
2022/06/21 16:29:03;;;;;;;;;;;;;;;;;;5056007;28;19932;-24
2022/06/21 16:34:15;;;;;;;;;;;;;;;;;;5057037;28;20247;-25
2022/06/21 16:36:42;;;;;;;;;;;;;;;;;;5060034;28;20297;-24
2022/06/21 16:39:09;;;;;;;;;;;;;;;;;;5060057;28;19913;-25
2022/06/21 16:44:22;;;;;;;;;;;;;;;;;;5060170;28;19923;-24
2022/06/21 16:46:49;;;;;;;;;;;;;;;;;;5059881;28;19958;-24
2022/06/21 16:49:16;;;;;;;;;;;;;;;;;;5059889;28;20263;-24
2022/06/21 16:51:43;;;;;;;;;;;;;;;;;;5059953;28;19919;-25
2022/06/21 16:54:11;;;;;;;;;;;;;;;;;;5058267;28;19913;-24
2022/06/21 16:56:38;;;;;;;;;;;;;;;;;;5059928;28;19923;-25
2022/06/21 16:59:05;;;;;;;;;;;;;;;;;;5059054;28;19970;-25
2022/06/21 17:01:34;;;;;;;;;;;;;;;;;;5060029;28;19913;-24
2022/06/21 17:04:02;;;;;;;;;;;;;;;;;;5059747;28;19920;-25
2022/06/21 17:06:29;;;;;;;;;;;;;;;;;;5058432;28;19970;-25
2022/06/21 17:08:55;;;;;;;;;;;;;;;;;;5059414;28;20015;-24
2022/06/21 17:11:25;;;;;;;;;;;;;;;;;;5059438;28;19919;-25
2022/06/21 17:13:53;;;;;;;;;;;;;;;;;;5059685;28;19912;-25
2022/06/21 17:16:21;;;;;;;;;;;;;;;;;;5058398;28;19908;-24
2022/06/21 17:18:48;;;;;;;;;;;;;;;;;;5059265;28;20260;-23
2022/06/21 17:21:17;;;;;;;;;;;;;;;;;;5059033;28;19951;-25
2022/06/21 17:23:45;;;;;;;;;;;;;;;;;;5059421;28;19913;-25
2022/06/21 17:26:12;;;;;;;;;;;;;;;;;;5059432;28;20327;-25
2022/06/21 17:28:39;;;;;;;;;;;;;;;;;;5058064;28;19928;-26
2022/06/21 17:31:07;;;;;;;;;;;;;;;;;;5057950;28;19909;-26
2022/06/21 17:33:34;;;;;;;;;;;;;;;;;;5058956;28;20273;-25
2022/06/21 17:36:01;;;;;;;;;;;;;;;;;;5058000;28;20034;-27
2022/06/21 17:38:28;;;;;;;;;;;;;;;;;;5059018;28;20019;-24
2022/06/21 17:41:01;;;;;;;;;;;;;;;;;;5059507;28;20337;-24
2022/06/21 17:43:29;;;;;;;;;;;;;;;;;;5057424;28;19913;-24
2022/06/21 17:45:55;;;;;;;;;;;;;;;;;;5056751;28;19978;-24
2022/06/21 17:48:22;;;;;;;;;;;;;;;;;;5058128;28;19944;-24
2022/06/21 17:50:49;;;;;;;;;;;;;;;;;;5057590;28;20379;-24
2022/06/21 17:53:16;;;;;;;;;;;;;;;;;;5059092;28;19917;-24
2022/06/21 17:55:45;;;;;;;;;;;;;;;;;;5058597;28;20003;-24
2022/06/21 17:58:12;;;;;;;;;;;;;;;;;;5058472;28;19951;-24
2022/06/21 18:00:39;;;;;;;;;;;;;;;;;;5057008;28;19913;-24
2022/06/21 18:03:07;;;;;;;;;;;;;;;;;;5057840;28;19912;-23
2022/06/21 18:05:34;;;;;;;;;;;;;;;;;;5056709;28;20252;-23
2022/06/21 18:08:01;;;;;;;;;;;;;;;;;;5058197;28;19991;-23
2022/06/21 18:10:29;;;;;;;;;;;;;;;;;;5056871;28;19960;-24